KFSD/FSD METAR and TAF weather

Enter ICAO airport designator
Station Type Date Time Source
KFSD METAR 2020/04/09 09:56 UTC NOAA

KFSD 090956Z 29013KT 10SM OVC160 03/M05 A2998 RMK AO2 SLP161 T00281050


Station Type Date Time Source
KFSD Decoded METAR 2020/04/09 09:56 UTC NOAA

SIOUX FALLS FOSS FIELD, SD, United States (KFSD) 43-35N 096-45W 434M
Apr 09, 2020 - 05:56 AM EDT / 2020.04.09 0956 UTC
Wind: from the WNW (290 degrees) at 15 MPH (13 KT):0
Visibility: 10 mile(s):0
Sky conditions: overcast
Temperature: 37.0 F (2.8 C)
Dew Point: 23.0 F (-5.0 C)
Relative Humidity: 56%
Pressure (altimeter): 29.98 in. Hg (1015 hPa)
ob: KFSD 090956Z 29013KT 10SM OVC160 03/M05 A2998 RMK AO2 SLP161 T00281050
cycle: 10

Station Type Date Time Source
KFSD TAF 2020/04/09 06:22 UTC NOAA

TAF KFSD 090520Z 0906/1006 30008KT P6SM FEW090
FM091100 30010G15KT P6SM SKC
FM091400 30017G27KT P6SM FEW050
FM091600 32021G34KT P6SM BKN050
FM092200 34015G23KT P6SM FEW060
FM100100 32005KT P6SM SKC

Example: see airport list